aviador You're here:

UKOO Decoded Metar

ODESSA in UKRAINE
Report Time2017-10-21 15:00:00
UTC Time2017-10-21 15:33:49
Flight Rules vfr VFR
Wind130° at 6 kt
W.Decomp.*RWY 16: 5.0 kt HW 3.4 kt LCW
W.Rank130° ranks 27
Current wind is below 130° avg. (7.6)
Visibility9999 m
Phenomena:N/A
Clouds:Scattered 036 Hf
Broken 100 Hf
Expected CloudBase > 1,200 ft AGL from Temp-Dew spread
Ceiling10,000 ft
Temp14°C (ISA -1)
Dew Point11°C (82% RH)
AAT12.2°C
QNH1015 hPa
Density Alt131 ft
Elevation115 ft
Report Wrong Elevation
Raw Report
UKOO 211500Z 13003MPS 9999 SCT036 BKN100 14/11 Q1015 R16/090060
NOSIG=

Extra information for UKOO:More info

Metar Taf Metar & Taf Last 4 Metars F.Rules Stats Wind Profile Meteogram Temp Stats Airport Information Weather charts Add Link Nearby VenuesMetar ALERT Operation Metar Decoded Social comments